sensor_id;sensor_type;location;lat;lon;timestamp;pressure;altitude;pressure_sealevel;temperature;humidity
11936;BME280;6027;48.576;9.180;2022-09-23T00:00:27;97128.31;;;8.83;93.13
11936;BME280;6027;48.576;9.180;2022-09-23T00:02:52;97125.69;;;8.83;92.62
11936;BME280;6027;48.576;9.180;2022-09-23T00:05:18;97121.22;;;8.76;91.94
11936;BME280;6027;48.576;9.180;2022-09-23T00:07:43;97127.81;;;8.63;93.82
11936;BME280;6027;48.576;9.180;2022-09-23T00:10:09;97128.44;;;8.49;95.13
11936;BME280;6027;48.576;9.180;2022-09-23T00:12:35;97125.47;;;8.52;94.74
11936;BME280;6027;48.576;9.180;2022-09-23T00:15:00;97121.84;;;8.53;95.16
11936;BME280;6027;48.576;9.180;2022-09-23T00:17:26;97122.97;;;8.35;95.49
11936;BME280;6027;48.576;9.180;2022-09-23T00:19:52;97118.00;;;8.31;96.04
11936;BME280;6027;48.576;9.180;2022-09-23T00:22:20;97125.25;;;8.21;96.31
11936;BME280;6027;48.576;9.180;2022-09-23T00:24:45;97127.88;;;8.21;97.18
11936;BME280;6027;48.576;9.180;2022-09-23T00:27:10;97128.88;;;8.28;98.17
11936;BME280;6027;48.576;9.180;2022-09-23T00:29:36;97126.91;;;8.22;98.13
11936;BME280;6027;48.576;9.180;2022-09-23T00:32:02;97117.78;;;8.09;99.26
11936;BME280;6027;48.576;9.180;2022-09-23T00:34:27;97127.84;;;8.13;98.85
11936;BME280;6027;48.576;9.180;2022-09-23T00:36:54;97124.69;;;8.10;99.30
11936;BME280;6027;48.576;9.180;2022-09-23T00:39:22;97121.91;;;8.11;99.49
11936;BME280;6027;48.576;9.180;2022-09-23T00:41:48;97117.97;;;8.15;99.23
11936;BME280;6027;48.576;9.180;2022-09-23T00:47:30;97118.50;;;8.27;98.76
11936;BME280;6027;48.576;9.180;2022-09-23T00:50:29;97115.03;;;8.26;97.95
11936;BME280;6027;48.576;9.180;2022-09-23T00:52:57;97109.41;;;8.29;95.40
11936;BME280;6027;48.576;9.180;2022-09-23T00:55:29;97101.88;;;8.35;95.25
11936;BME280;6027;48.576;9.180;2022-09-23T00:57:58;97106.84;;;8.38;94.87
11936;BME280;6027;48.576;9.180;2022-09-23T01:00:25;97103.31;;;8.29;96.10
11936;BME280;6027;48.576;9.180;2022-09-23T01:02:51;97107.00;;;8.36;95.33
11936;BME280;6027;48.576;9.180;2022-09-23T01:05:17;97102.06;;;8.41;94.16
11936;BME280;6027;48.576;9.180;2022-09-23T01:07:43;97102.22;;;8.40;93.56
11936;BME280;6027;48.576;9.180;2022-09-23T01:10:10;97104.88;;;8.40;94.27
11936;BME280;6027;48.576;9.180;2022-09-23T01:15:43;97101.56;;;8.38;95.14
11936;BME280;6027;48.576;9.180;2022-09-23T01:20:55;97099.91;;;8.37;93.57
11936;BME280;6027;48.576;9.180;2022-09-23T01:23:43;97104.31;;;8.28;94.11
11936;BME280;6027;48.576;9.180;2022-09-23T01:35:18;97082.38;;;8.19;97.65
11936;BME280;6027;48.576;9.180;2022-09-23T01:37:59;97090.97;;;8.21;98.03
11936;BME280;6027;48.576;9.180;2022-09-23T01:40:44;97089.59;;;8.09;98.72
11936;BME280;6027;48.576;9.180;2022-09-23T01:43:14;97094.03;;;8.09;98.56
11936;BME280;6027;48.576;9.180;2022-09-23T01:45:48;97087.47;;;8.13;98.50
11936;BME280;6027;48.576;9.180;2022-09-23T01:51:19;97084.97;;;8.03;100.00
11936;BME280;6027;48.576;9.180;2022-09-23T01:53:56;97083.34;;;8.02;99.82
11936;BME280;6027;48.576;9.180;2022-09-23T01:56:35;97083.34;;;8.10;99.24
11936;BME280;6027;48.576;9.180;2022-09-23T01:59:23;97082.78;;;7.90;99.23
11936;BME280;6027;48.576;9.180;2022-09-23T02:07:26;97083.31;;;7.52;99.52
11936;BME280;6027;48.576;9.180;2022-09-23T02:09:54;97073.81;;;7.33;100.00
11936;BME280;6027;48.576;9.180;2022-09-23T02:12:23;97083.72;;;7.31;100.00
11936;BME280;6027;48.576;9.180;2022-09-23T02:15:00;97077.97;;;7.36;100.00
11936;BME280;6027;48.576;9.180;2022-09-23T02:17:34;97070.88;;;7.28;100.00
11936;BME280;6027;48.576;9.180;2022-09-23T02:20:04;97071.25;;;7.07;100.00
11936;BME280;6027;48.576;9.180;2022-09-23T02:23:14;97077.88;;;6.93;100.00
11936;BME280;6027;48.576;9.180;2022-09-23T02:28:13;97073.63;;;6.92;100.00
11936;BME280;6027;48.576;9.180;2022-09-23T02:30:58;97072.00;;;7.00;100.00
11936;BME280;6027;48.576;9.180;2022-09-23T02:34:17;97074.84;;;6.80;100.00
11936;BME280;6027;48.576;9.180;2022-09-23T02:39:22;97070.88;;;6.58;100.00
11936;BME280;6027;48.576;9.180;2022-09-23T02:42:27;97068.47;;;6.65;100.00
11936;BME280;6027;48.576;9.180;2022-09-23T02:44:48;97068.44;;;6.83;100.00
11936;BME280;6027;48.576;9.180;2022-09-23T02:47:16;97062.66;;;6.79;100.00
11936;BME280;6027;48.576;9.180;2022-09-23T02:49:43;97064.88;;;6.66;100.00
11936;BME280;6027;48.576;9.180;2022-09-23T02:52:10;97063.22;;;6.65;100.00
11936;BME280;6027;48.576;9.180;2022-09-23T02:54:38;97061.63;;;6.54;100.00
11936;BME280;6027;48.576;9.180;2022-09-23T02:57:05;97060.22;;;6.60;100.00
11936;BME280;6027;48.576;9.180;2022-09-23T02:59:33;97053.91;;;6.71;100.00
11936;BME280;6027;48.576;9.180;2022-09-23T03:05:18;97055.16;;;6.67;100.00
11936;BME280;6027;48.576;9.180;2022-09-23T03:08:09;97047.06;;;6.60;100.00
11936;BME280;6027;48.576;9.180;2022-09-23T03:10:57;97044.56;;;6.58;100.00
11936;BME280;6027;48.576;9.180;2022-09-23T03:21:42;97060.66;;;6.73;100.00
11936;BME280;6027;48.576;9.180;2022-09-23T03:24:11;97059.50;;;6.76;100.00
11936;BME280;6027;48.576;9.180;2022-09-23T03:26:39;97056.41;;;6.80;100.00
11936;BME280;6027;48.576;9.180;2022-09-23T03:29:08;97053.53;;;6.66;100.00
11936;BME280;6027;48.576;9.180;2022-09-23T03:31:37;97053.06;;;6.70;100.00
11936;BME280;6027;48.576;9.180;2022-09-23T03:34:27;97060.13;;;6.70;100.00
11936;BME280;6027;48.576;9.180;2022-09-23T03:37:00;97050.75;;;6.67;100.00
11936;BME280;6027;48.576;9.180;2022-09-23T03:39:34;97054.88;;;6.70;100.00
11936;BME280;6027;48.576;9.180;2022-09-23T03:42:26;97048.41;;;6.64;100.00
11936;BME280;6027;48.576;9.180;2022-09-23T03:44:52;97043.22;;;6.72;100.00
11936;BME280;6027;48.576;9.180;2022-09-23T03:47:20;97049.47;;;6.71;100.00
11936;BME280;6027;48.576;9.180;2022-09-23T03:49:47;97042.25;;;6.73;100.00
11936;BME280;6027;48.576;9.180;2022-09-23T03:52:14;97039.94;;;6.78;100.00
11936;BME280;6027;48.576;9.180;2022-09-23T03:54:40;97038.56;;;6.66;100.00
11936;BME280;6027;48.576;9.180;2022-09-23T03:57:06;97032.16;;;6.69;100.00
11936;BME280;6027;48.576;9.180;2022-09-23T03:59:31;97034.19;;;6.57;100.00
11936;BME280;6027;48.576;9.180;2022-09-23T04:01:58;97034.38;;;6.38;100.00
11936;BME280;6027;48.576;9.180;2022-09-23T04:04:25;97029.38;;;6.27;100.00
11936;BME280;6027;48.576;9.180;2022-09-23T04:06:52;97026.38;;;6.21;100.00
11936;BME280;6027;48.576;9.180;2022-09-23T04:09:19;97032.31;;;6.23;100.00
11936;BME280;6027;48.576;9.180;2022-09-23T04:11:44;97028.78;;;6.15;100.00
11936;BME280;6027;48.576;9.180;2022-09-23T04:14:10;97027.13;;;6.14;100.00
11936;BME280;6027;48.576;9.180;2022-09-23T04:16:36;97017.81;;;6.02;100.00
11936;BME280;6027;48.576;9.180;2022-09-23T04:19:02;97013.38;;;6.02;100.00
11936;BME280;6027;48.576;9.180;2022-09-23T04:21:27;97017.59;;;5.95;100.00
11936;BME280;6027;48.576;9.180;2022-09-23T04:23:54;97014.97;;;5.95;100.00
11936;BME280;6027;48.576;9.180;2022-09-23T04:26:20;97017.91;;;5.92;100.00
11936;BME280;6027;48.576;9.180;2022-09-23T04:28:45;97016.81;;;5.85;100.00
11936;BME280;6027;48.576;9.180;2022-09-23T04:31:11;97018.53;;;5.76;100.00
11936;BME280;6027;48.576;9.180;2022-09-23T04:33:36;97026.31;;;5.68;100.00
11936;BME280;6027;48.576;9.180;2022-09-23T04:36:02;97020.34;;;5.48;100.00
11936;BME280;6027;48.576;9.180;2022-09-23T04:38:28;97020.00;;;5.61;100.00
11936;BME280;6027;48.576;9.180;2022-09-23T04:40:53;97015.28;;;5.65;100.00
11936;BME280;6027;48.576;9.180;2022-09-23T04:43:19;97008.97;;;5.58;100.00
11936;BME280;6027;48.576;9.180;2022-09-23T04:46:00;97015.63;;;5.52;100.00
11936;BME280;6027;48.576;9.180;2022-09-23T04:48:27;97020.13;;;5.60;100.00
11936;BME280;6027;48.576;9.180;2022-09-23T04:50:52;97015.84;;;5.59;100.00
11936;BME280;6027;48.576;9.180;2022-09-23T04:53:18;97016.31;;;5.54;100.00
11936;BME280;6027;48.576;9.180;2022-09-23T04:55:43;97021.09;;;5.59;100.00
11936;BME280;6027;48.576;9.180;2022-09-23T04:58:09;97019.53;;;5.48;100.00
11936;BME280;6027;48.576;9.180;2022-09-23T05:00:36;97015.69;;;5.42;100.00
11936;BME280;6027;48.576;9.180;2022-09-23T05:03:01;97024.16;;;5.36;100.00
11936;BME280;6027;48.576;9.180;2022-09-23T05:05:27;97023.56;;;5.42;100.00
11936;BME280;6027;48.576;9.180;2022-09-23T05:07:54;97033.78;;;5.45;100.00
11936;BME280;6027;48.576;9.180;2022-09-23T05:10:20;97022.97;;;5.48;100.00
11936;BME280;6027;48.576;9.180;2022-09-23T05:12:45;97031.53;;;5.50;100.00
11936;BME280;6027;48.576;9.180;2022-09-23T05:15:10;97035.13;;;5.49;100.00
11936;BME280;6027;48.576;9.180;2022-09-23T05:17:37;97028.91;;;5.50;100.00
11936;BME280;6027;48.576;9.180;2022-09-23T05:20:03;97037.97;;;5.38;100.00
11936;BME280;6027;48.576;9.180;2022-09-23T05:22:29;97029.84;;;5.32;100.00
11936;BME280;6027;48.576;9.180;2022-09-23T05:24:54;97037.72;;;5.32;100.00
11936;BME280;6027;48.576;9.180;2022-09-23T05:27:20;97039.59;;;5.39;100.00
11936;BME280;6027;48.576;9.180;2022-09-23T05:29:46;97037.97;;;5.38;100.00
11936;BME280;6027;48.576;9.180;2022-09-23T05:32:12;97030.47;;;5.16;100.00
11936;BME280;6027;48.576;9.180;2022-09-23T05:34:39;97033.59;;;5.29;100.00
11936;BME280;6027;48.576;9.180;2022-09-23T05:37:05;97023.91;;;5.30;100.00
11936;BME280;6027;48.576;9.180;2022-09-23T05:39:31;97032.03;;;5.36;100.00
11936;BME280;6027;48.576;9.180;2022-09-23T05:41:56;97035.22;;;5.30;100.00
11936;BME280;6027;48.576;9.180;2022-09-23T05:44:24;97033.59;;;5.29;100.00
11936;BME280;6027;48.576;9.180;2022-09-23T05:46:51;97033.09;;;5.43;100.00
11936;BME280;6027;48.576;9.180;2022-09-23T05:49:16;97035.91;;;5.32;100.00
11936;BME280;6027;48.576;9.180;2022-09-23T05:51:42;97044.91;;;5.30;100.00
11936;BME280;6027;48.576;9.180;2022-09-23T05:54:08;97041.25;;;5.40;100.00
11936;BME280;6027;48.576;9.180;2022-09-23T05:56:34;97045.53;;;5.41;100.00
11936;BME280;6027;48.576;9.180;2022-09-23T05:59:01;97044.19;;;5.37;100.00
11936;BME280;6027;48.576;9.180;2022-09-23T06:01:28;97046.69;;;5.29;100.00
11936;BME280;6027;48.576;9.180;2022-09-23T06:03:57;97045.94;;;5.19;100.00
11936;BME280;6027;48.576;9.180;2022-09-23T06:06:28;97047.69;;;5.28;100.00
11936;BME280;6027;48.576;9.180;2022-09-23T06:08:54;97042.91;;;5.41;100.00
11936;BME280;6027;48.576;9.180;2022-09-23T06:11:20;97036.53;;;5.44;100.00
11936;BME280;6027;48.576;9.180;2022-09-23T06:13:46;97045.22;;;5.54;100.00
11936;BME280;6027;48.576;9.180;2022-09-23T06:16:13;97040.69;;;5.46;100.00
11936;BME280;6027;48.576;9.180;2022-09-23T06:18:40;97042.91;;;5.41;100.00
11936;BME280;6027;48.576;9.180;2022-09-23T06:21:13;97040.38;;;5.49;100.00
11936;BME280;6027;48.576;9.180;2022-09-23T06:23:39;97039.88;;;5.64;100.00
11936;BME280;6027;48.576;9.180;2022-09-23T06:26:06;97043.91;;;5.58;100.00
11936;BME280;6027;48.576;9.180;2022-09-23T06:28:34;97040.41;;;5.67;100.00
11936;BME280;6027;48.576;9.180;2022-09-23T06:31:01;97037.88;;;5.58;100.00
11936;BME280;6027;48.576;9.180;2022-09-23T06:33:29;97040.50;;;5.58;100.00
11936;BME280;6027;48.576;9.180;2022-09-23T06:36:05;97038.19;;;5.72;100.00
11936;BME280;6027;48.576;9.180;2022-09-23T06:38:32;97042.75;;;5.70;100.00
11936;BME280;6027;48.576;9.180;2022-09-23T06:41:00;97044.13;;;5.74;100.00
11936;BME280;6027;48.576;9.180;2022-09-23T06:43:29;97039.38;;;5.78;100.00
11936;BME280;6027;48.576;9.180;2022-09-23T06:45:56;97039.06;;;5.91;100.00
11936;BME280;6027;48.576;9.180;2022-09-23T06:48:22;97049.56;;;5.91;100.00
11936;BME280;6027;48.576;9.180;2022-09-23T06:50:51;97039.28;;;5.97;100.00
11936;BME280;6027;48.576;9.180;2022-09-23T06:53:19;97044.31;;;6.08;100.00
11936;BME280;6027;48.576;9.180;2022-09-23T06:55:48;97034.88;;;6.15;100.00
11936;BME280;6027;48.576;9.180;2022-09-23T06:58:14;97045.84;;;6.11;100.00
11936;BME280;6027;48.576;9.180;2022-09-23T07:00:40;97037.56;;;6.23;100.00
11936;BME280;6027;48.576;9.180;2022-09-23T07:03:06;97043.25;;;6.37;100.00
11936;BME280;6027;48.576;9.180;2022-09-23T07:05:33;97044.31;;;6.44;100.00
11936;BME280;6027;48.576;9.180;2022-09-23T07:07:59;97036.16;;;6.55;100.00
11936;BME280;6027;48.576;9.180;2022-09-23T07:10:25;97048.09;;;6.67;100.00
11936;BME280;6027;48.576;9.180;2022-09-23T07:12:53;97039.44;;;6.75;100.00
11936;BME280;6027;48.576;9.180;2022-09-23T07:15:19;97041.00;;;6.85;100.00
11936;BME280;6027;48.576;9.180;2022-09-23T07:17:44;97026.19;;;6.84;100.00
11936;BME280;6027;48.576;9.180;2022-09-23T07:20:10;97038.22;;;6.87;100.00
11936;BME280;6027;48.576;9.180;2022-09-23T07:22:36;97036.25;;;6.89;100.00
11936;BME280;6027;48.576;9.180;2022-09-23T07:25:02;97020.50;;;6.97;100.00
11936;BME280;6027;48.576;9.180;2022-09-23T07:27:27;97021.69;;;7.03;100.00
11936;BME280;6027;48.576;9.180;2022-09-23T07:29:53;97028.28;;;7.07;100.00
11936;BME280;6027;48.576;9.180;2022-09-23T07:32:20;97022.31;;;7.31;100.00
11936;BME280;6027;48.576;9.180;2022-09-23T07:34:47;97029.31;;;7.48;100.00
11936;BME280;6027;48.576;9.180;2022-09-23T07:37:14;97020.91;;;7.52;100.00
11936;BME280;6027;48.576;9.180;2022-09-23T07:39:40;97022.75;;;7.60;100.00
11936;BME280;6027;48.576;9.180;2022-09-23T07:42:06;97022.94;;;7.75;100.00
11936;BME280;6027;48.576;9.180;2022-09-23T07:44:32;97023.97;;;7.82;100.00
11936;BME280;6027;48.576;9.180;2022-09-23T07:46:58;97025.97;;;7.96;100.00
11936;BME280;6027;48.576;9.180;2022-09-23T07:49:24;97017.91;;;8.06;100.00
11936;BME280;6027;48.576;9.180;2022-09-23T07:51:49;97023.22;;;8.22;100.00
11936;BME280;6027;48.576;9.180;2022-09-23T07:54:15;97018.75;;;8.30;100.00
11936;BME280;6027;48.576;9.180;2022-09-23T07:56:42;97022.09;;;8.41;100.00
11936;BME280;6027;48.576;9.180;2022-09-23T07:59:11;97021.91;;;8.50;100.00
11936;BME280;6027;48.576;9.180;2022-09-23T08:01:50;97031.81;;;8.56;100.00
11936;BME280;6027;48.576;9.180;2022-09-23T08:06:48;97026.34;;;8.82;100.00
11936;BME280;6027;48.576;9.180;2022-09-23T08:09:16;97018.22;;;8.92;100.00
11936;BME280;6027;48.576;9.180;2022-09-23T08:11:42;97021.69;;;9.00;100.00
11936;BME280;6027;48.576;9.180;2022-09-23T08:14:09;97017.69;;;9.13;100.00
11936;BME280;6027;48.576;9.180;2022-09-23T08:16:35;97025.78;;;9.19;100.00
11936;BME280;6027;48.576;9.180;2022-09-23T08:19:01;97022.09;;;9.28;100.00
11936;BME280;6027;48.576;9.180;2022-09-23T08:21:26;97030.00;;;9.37;100.00
11936;BME280;6027;48.576;9.180;2022-09-23T08:23:52;97016.28;;;9.41;100.00
11936;BME280;6027;48.576;9.180;2022-09-23T08:26:18;97026.31;;;9.54;100.00
11936;BME280;6027;48.576;9.180;2022-09-23T08:28:44;97032.34;;;9.62;100.00
11936;BME280;6027;48.576;9.180;2022-09-23T08:31:10;97022.00;;;9.61;100.00
11936;BME280;6027;48.576;9.180;2022-09-23T08:33:37;97024.56;;;9.69;100.00
11936;BME280;6027;48.576;9.180;2022-09-23T08:36:04;97025.19;;;9.79;100.00
11936;BME280;6027;48.576;9.180;2022-09-23T08:38:29;97031.06;;;9.89;100.00
11936;BME280;6027;48.576;9.180;2022-09-23T08:43:33;97024.88;;;10.05;100.00
11936;BME280;6027;48.576;9.180;2022-09-23T08:46:06;97024.97;;;10.20;100.00
11936;BME280;6027;48.576;9.180;2022-09-23T08:48:39;97026.59;;;10.21;100.00
11936;BME280;6027;48.576;9.180;2022-09-23T08:51:11;97027.38;;;10.29;100.00
11936;BME280;6027;48.576;9.180;2022-09-23T08:53:38;97025.94;;;10.42;100.00
11936;BME280;6027;48.576;9.180;2022-09-23T08:56:24;97021.59;;;10.49;100.00
11936;BME280;6027;48.576;9.180;2022-09-23T08:59:08;97029.03;;;10.53;100.00
11936;BME280;6027;48.576;9.180;2022-09-23T09:02:19;97014.44;;;10.57;100.00
11936;BME280;6027;48.576;9.180;2022-09-23T09:04:51;97020.47;;;10.66;100.00
11936;BME280;6027;48.576;9.180;2022-09-23T09:07:21;97021.66;;;10.78;100.00
11936;BME280;6027;48.576;9.180;2022-09-23T09:09:53;97018.97;;;10.86;100.00
11936;BME280;6027;48.576;9.180;2022-09-23T09:15:26;97021.16;;;10.97;100.00
11936;BME280;6027;48.576;9.180;2022-09-23T09:18:17;97013.13;;;11.05;100.00
11936;BME280;6027;48.576;9.180;2022-09-23T09:20:56;97020.53;;;11.10;100.00
11936;BME280;6027;48.576;9.180;2022-09-23T09:23:45;97002.72;;;11.04;100.00
11936;BME280;6027;48.576;9.180;2022-09-23T09:26:18;97004.28;;;11.13;100.00
11936;BME280;6027;48.576;9.180;2022-09-23T09:28:48;97000.00;;;11.12;100.00
11936;BME280;6027;48.576;9.180;2022-09-23T09:31:34;96999.34;;;11.25;100.00
11936;BME280;6027;48.576;9.180;2022-09-23T09:34:35;97000.25;;;11.32;100.00
11936;BME280;6027;48.576;9.180;2022-09-23T09:37:09;96989.47;;;11.48;100.00
11936;BME280;6027;48.576;9.180;2022-09-23T09:39:38;96988.28;;;11.51;100.00
11936;BME280;6027;48.576;9.180;2022-09-23T09:42:04;96993.09;;;11.62;100.00
11936;BME280;6027;48.576;9.180;2022-09-23T09:50:04;96985.28;;;11.90;100.00
11936;BME280;6027;48.576;9.180;2022-09-23T09:52:30;96984.28;;;11.91;100.00
11936;BME280;6027;48.576;9.180;2022-09-23T09:55:23;96985.72;;;11.93;100.00
11936;BME280;6027;48.576;9.180;2022-09-23T09:57:58;96974.16;;;12.01;100.00
11936;BME280;6027;48.576;9.180;2022-09-23T10:02:57;96975.81;;;12.23;98.74
11936;BME280;6027;48.576;9.180;2022-09-23T10:07:50;96970.88;;;12.41;94.99
11936;BME280;6027;48.576;9.180;2022-09-23T10:10:33;96966.47;;;12.49;91.92
11936;BME280;6027;48.576;9.180;2022-09-23T10:13:13;96972.41;;;12.51;95.99
11936;BME280;6027;48.576;9.180;2022-09-23T10:15:42;96964.78;;;12.69;97.71
11936;BME280;6027;48.576;9.180;2022-09-23T10:19:09;96969.75;;;12.78;95.75
11936;BME280;6027;48.576;9.180;2022-09-23T10:21:07;96968.22;;;12.97;93.55
11936;BME280;6027;48.576;9.180;2022-09-23T10:23:39;96964.63;;;13.05;89.71
11936;BME280;6027;48.576;9.180;2022-09-23T10:26:06;96956.34;;;13.21;89.65
11936;BME280;6027;48.576;9.180;2022-09-23T10:28:53;96963.94;;;13.31;92.76
11936;BME280;6027;48.576;9.180;2022-09-23T10:31:34;96962.88;;;13.60;92.43
11936;BME280;6027;48.576;9.180;2022-09-23T10:34:01;96954.53;;;13.76;91.28
11936;BME280;6027;48.576;9.180;2022-09-23T10:36:32;96951.91;;;13.89;92.50
11936;BME280;6027;48.576;9.180;2022-09-23T10:39:00;96956.44;;;14.08;90.05
11936;BME280;6027;48.576;9.180;2022-09-23T10:42:00;96950.72;;;14.25;85.65
11936;BME280;6027;48.576;9.180;2022-09-23T10:45:25;96946.69;;;14.42;87.36
11936;BME280;6027;48.576;9.180;2022-09-23T10:50:46;96939.94;;;14.59;83.35
11936;BME280;6027;48.576;9.180;2022-09-23T10:53:32;96943.41;;;14.66;81.45
11936;BME280;6027;48.576;9.180;2022-09-23T10:59:01;96934.16;;;14.82;83.10
11936;BME280;6027;48.576;9.180;2022-09-23T11:18:09;96917.41;;;15.39;75.18
11936;BME280;6027;48.576;9.180;2022-09-23T11:21:05;96912.84;;;15.46;74.66
11936;BME280;6027;48.576;9.180;2022-09-23T11:32:33;96897.63;;;15.53;68.48
11936;BME280;6027;48.576;9.180;2022-09-23T11:35:37;96883.25;;;15.61;68.71
11936;BME280;6027;48.576;9.180;2022-09-23T11:38:34;96887.09;;;15.72;69.94
11936;BME280;6027;48.576;9.180;2022-09-23T11:44:14;96876.75;;;15.82;74.15
11936;BME280;6027;48.576;9.180;2022-09-23T11:46:49;96878.25;;;16.03;73.13
11936;BME280;6027;48.576;9.180;2022-09-23T11:49:36;96872.72;;;16.04;68.03
11936;BME280;6027;48.576;9.180;2022-09-23T11:52:14;96872.13;;;16.27;67.25
11936;BME280;6027;48.576;9.180;2022-09-23T11:54:50;96874.19;;;16.25;66.66
11936;BME280;6027;48.576;9.180;2022-09-23T11:57:37;96879.53;;;16.25;67.05
11936;BME280;6027;48.576;9.180;2022-09-23T12:00:15;96871.88;;;16.35;68.64
11936;BME280;6027;48.576;9.180;2022-09-23T12:06:00;96876.88;;;16.50;67.99
11936;BME280;6027;48.576;9.180;2022-09-23T12:08:32;96877.41;;;16.58;69.92
11936;BME280;6027;48.576;9.180;2022-09-23T12:24:56;96850.72;;;17.32;61.29
11936;BME280;6027;48.576;9.180;2022-09-23T12:27:27;96860.38;;;17.33;62.46
11936;BME280;6027;48.576;9.180;2022-09-23T12:29:58;96861.28;;;17.26;61.46
11936;BME280;6027;48.576;9.180;2022-09-23T12:32:25;96857.63;;;17.39;63.10
11936;BME280;6027;48.576;9.180;2022-09-23T12:34:52;96855.56;;;17.53;62.36
11936;BME280;6027;48.576;9.180;2022-09-23T12:37:32;96851.53;;;17.50;60.86
11936;BME280;6027;48.576;9.180;2022-09-23T12:40:04;96836.63;;;17.54;63.03
11936;BME280;6027;48.576;9.180;2022-09-23T12:42:30;96836.81;;;17.41;60.06
11936;BME280;6027;48.576;9.180;2022-09-23T12:48:24;96834.94;;;17.42;60.00
11936;BME280;6027;48.576;9.180;2022-09-23T12:56:01;96825.44;;;17.46;60.54
11936;BME280;6027;48.576;9.180;2022-09-23T12:58:56;96822.38;;;17.72;59.02
11936;BME280;6027;48.576;9.180;2022-09-23T13:01:23;96830.47;;;17.84;58.99
11936;BME280;6027;48.576;9.180;2022-09-23T13:09:19;96807.09;;;18.03;60.05
11936;BME280;6027;48.576;9.180;2022-09-23T13:11:45;96792.88;;;18.02;56.73
11936;BME280;6027;48.576;9.180;2022-09-23T13:14:16;96797.78;;;18.05;57.86
11936;BME280;6027;48.576;9.180;2022-09-23T13:16:45;96788.00;;;18.22;56.23
11936;BME280;6027;48.576;9.180;2022-09-23T13:29:25;96780.34;;;18.26;56.02
11936;BME280;6027;48.576;9.180;2022-09-23T13:31:53;96788.94;;;18.40;58.06
11936;BME280;6027;48.576;9.180;2022-09-23T13:34:23;96785.69;;;18.38;58.83
11936;BME280;6027;48.576;9.180;2022-09-23T13:36:51;96780.53;;;18.48;55.32
11936;BME280;6027;48.576;9.180;2022-09-23T13:39:25;96787.66;;;18.54;55.61
11936;BME280;6027;48.576;9.180;2022-09-23T13:41:53;96776.22;;;18.58;53.92
11936;BME280;6027;48.576;9.180;2022-09-23T13:44:21;96779.63;;;18.66;54.10
11936;BME280;6027;48.576;9.180;2022-09-23T13:46:49;96774.28;;;18.66;54.91
11936;BME280;6027;48.576;9.180;2022-09-23T13:49:43;96773.91;;;18.74;52.76
11936;BME280;6027;48.576;9.180;2022-09-23T13:52:23;96764.34;;;18.78;51.78
11936;BME280;6027;48.576;9.180;2022-09-23T13:54:49;96765.63;;;18.75;53.21
11936;BME280;6027;48.576;9.180;2022-09-23T13:57:30;96765.75;;;18.69;53.64
11936;BME280;6027;48.576;9.180;2022-09-23T14:02:41;96767.28;;;18.65;54.97
11936;BME280;6027;48.576;9.180;2022-09-23T14:05:12;96762.34;;;18.73;55.61
11936;BME280;6027;48.576;9.180;2022-09-23T14:07:38;96760.84;;;18.77;53.69
11936;BME280;6027;48.576;9.180;2022-09-23T14:10:05;96757.06;;;18.90;53.12
11936;BME280;6027;48.576;9.180;2022-09-23T14:12:30;96758.69;;;19.03;53.03
11936;BME280;6027;48.576;9.180;2022-09-23T14:14:56;96753.56;;;19.01;52.65
11936;BME280;6027;48.576;9.180;2022-09-23T14:17:22;96750.53;;;18.97;52.75
11936;BME280;6027;48.576;9.180;2022-09-23T14:19:48;96752.56;;;18.79;53.48
11936;BME280;6027;48.576;9.180;2022-09-23T14:22:25;96751.75;;;18.78;55.48
11936;BME280;6027;48.576;9.180;2022-09-23T14:24:52;96749.00;;;18.90;54.47
11936;BME280;6027;48.576;9.180;2022-09-23T14:27:30;96750.31;;;18.87;53.99
11936;BME280;6027;48.576;9.180;2022-09-23T14:29:56;96751.41;;;18.75;54.23
11936;BME280;6027;48.576;9.180;2022-09-23T14:32:24;96751.28;;;18.70;54.10
11936;BME280;6027;48.576;9.180;2022-09-23T14:37:36;96745.34;;;18.68;56.22
11936;BME280;6027;48.576;9.180;2022-09-23T14:41:12;96742.19;;;18.47;56.86
11936;BME280;6027;48.576;9.180;2022-09-23T14:43:21;96750.25;;;18.36;57.16
11936;BME280;6027;48.576;9.180;2022-09-23T14:45:56;96736.88;;;18.24;58.25
11936;BME280;6027;48.576;9.180;2022-09-23T14:48:37;96739.91;;;18.27;57.78
11936;BME280;6027;48.576;9.180;2022-09-23T14:51:06;96737.56;;;18.19;58.01
11936;BME280;6027;48.576;9.180;2022-09-23T14:53:44;96736.16;;;18.17;58.80
11936;BME280;6027;48.576;9.180;2022-09-23T15:04:16;96745.72;;;18.01;59.96
11936;BME280;6027;48.576;9.180;2022-09-23T15:07:04;96735.00;;;17.89;59.58
11936;BME280;6027;48.576;9.180;2022-09-23T15:09:35;96736.38;;;17.92;59.12
11936;BME280;6027;48.576;9.180;2022-09-23T15:12:05;96732.31;;;17.89;59.55
11936;BME280;6027;48.576;9.180;2022-09-23T15:14:35;96724.63;;;17.93;59.31
11936;BME280;6027;48.576;9.180;2022-09-23T15:17:03;96728.25;;;17.87;59.75
11936;BME280;6027;48.576;9.180;2022-09-23T15:19:33;96725.56;;;17.87;59.35
11936;BME280;6027;48.576;9.180;2022-09-23T15:21:59;96725.78;;;17.85;59.62
11936;BME280;6027;48.576;9.180;2022-09-23T15:24:40;96724.16;;;17.84;59.22
11936;BME280;6027;48.576;9.180;2022-09-23T15:27:21;96725.06;;;17.78;59.73
11936;BME280;6027;48.576;9.180;2022-09-23T15:29:50;96728.34;;;17.80;60.77
11936;BME280;6027;48.576;9.180;2022-09-23T15:32:16;96726.25;;;17.82;60.13
11936;BME280;6027;48.576;9.180;2022-09-23T15:34:42;96723.44;;;17.77;59.64
11936;BME280;6027;48.576;9.180;2022-09-23T15:37:09;96738.59;;;17.83;59.49
11936;BME280;6027;48.576;9.180;2022-09-23T15:39:36;96731.38;;;17.84;59.25
11936;BME280;6027;48.576;9.180;2022-09-23T15:42:02;96734.50;;;17.81;58.58
11936;BME280;6027;48.576;9.180;2022-09-23T15:44:27;96741.28;;;17.83;59.25
11936;BME280;6027;48.576;9.180;2022-09-23T15:46:55;96740.31;;;17.78;60.39
11936;BME280;6027;48.576;9.180;2022-09-23T15:49:31;96738.00;;;17.81;59.98
11936;BME280;6027;48.576;9.180;2022-09-23T15:51:59;96740.56;;;17.76;59.64
11936;BME280;6027;48.576;9.180;2022-09-23T15:54:26;96739.38;;;17.72;59.65
11936;BME280;6027;48.576;9.180;2022-09-23T15:56:51;96748.81;;;17.75;59.55
11936;BME280;6027;48.576;9.180;2022-09-23T15:59:17;96743.00;;;17.66;59.45
11936;BME280;6027;48.576;9.180;2022-09-23T16:01:44;96739.34;;;17.60;59.54
11936;BME280;6027;48.576;9.180;2022-09-23T16:04:10;96735.19;;;17.65;59.28